Time;durP1;ratioP1;P1;durP2;ratioP2;P2;SDS_P1;SDS_P2;PMS_P1;PMS_P2;Temp;Humidity;BMP_temperature;BMP_pressure;BME280_temperature;BME280_humidity;BME280_pressure;Samples;Min_cycle;Max_cycle;Signal;HPM_P1;HPM_P2
2022/05/09 00:01:47;;;;;;;;;;;;;;;14.32;45.15;101573.59;4999228;28;6887;-75
2022/05/09 00:04:13;;;;;;;;;;;;;;;14.27;45.38;101568.19;5000087;28;6886;-75
2022/05/09 00:06:38;;;;;;;;;;;;;;;14.23;45.87;101563.69;5003106;28;6987;-75
2022/05/09 00:09:05;;;;;;;;;;;;;;;14.19;45.73;101572.06;5004574;28;6884;-75
2022/05/09 00:11:32;;;;;;;;;;;;;;;14.14;46.30;101570.97;4976964;28;6899;-75
2022/05/09 00:13:58;;;;;;;;;;;;;;;14.10;46.00;101566.44;4992943;28;6816;-75
2022/05/09 00:16:24;;;;;;;;;;;;;;;14.04;46.17;101564.44;4994003;28;6784;-75
2022/05/09 00:18:50;;;;;;;;;;;;;;;13.98;46.32;101558.97;5003292;28;6796;-75
2022/05/09 00:21:16;;;;;;;;;;;;;;;13.94;45.69;101560.50;4975971;28;6796;-75
2022/05/09 00:23:42;;;;;;;;;;;;;;;13.90;46.13;101558.53;5003917;28;6776;-75
2022/05/09 00:26:08;;;;;;;;;;;;;;;13.86;46.83;101552.38;5002277;28;6960;-75
2022/05/09 00:28:34;;;;;;;;;;;;;;;13.84;46.99;101547.94;5001614;28;6995;-75
2022/05/09 00:31:00;;;;;;;;;;;;;;;13.80;46.53;101551.13;4997504;28;6807;-75
2022/05/09 00:33:26;;;;;;;;;;;;;;;13.77;47.32;101556.13;5002144;28;6827;-75
2022/05/09 00:35:52;;;;;;;;;;;;;;;13.72;47.12;101549.06;4978744;28;6777;-75
2022/05/09 00:38:19;;;;;;;;;;;;;;;13.67;46.79;101550.47;4977950;28;7649;-75
2022/05/09 00:41:28;;;;;;;;;;;;;;;13.64;46.59;101547.75;4988263;28;6880;-75
2022/05/09 00:43:35;;;;;;;;;;;;;;;13.62;47.32;101546.78;4998678;28;7047;-75
2022/05/09 00:46:02;;;;;;;;;;;;;;;13.59;46.95;101541.44;4997562;28;7205;-75
2022/05/09 00:48:28;;;;;;;;;;;;;;;13.55;47.06;101544.69;4985036;28;8401;-75
2022/05/09 00:50:56;;;;;;;;;;;;;;;13.52;46.89;101549.63;4975265;28;6872;-74
2022/05/09 00:53:25;;;;;;;;;;;;;;;13.51;47.27;101545.31;5003255;28;6875;-74
2022/05/09 00:55:58;;;;;;;;;;;;;;;13.49;47.79;101546.91;5003573;28;8123;-74
2022/05/09 00:58:33;;;;;;;;;;;;;;;13.47;47.97;101546.81;5002730;28;6860;-74
2022/05/09 01:01:00;;;;;;;;;;;;;;;13.45;47.56;101551.91;4998387;28;6992;-74
2022/05/09 01:04:04;;;;;;;;;;;;;;;13.45;47.17;101548.44;5000783;28;7219;-74
2022/05/09 01:06:30;;;;;;;;;;;;;;;13.41;47.60;101541.31;4997391;28;7014;-74
2022/05/09 01:08:55;;;;;;;;;;;;;;;13.39;47.46;101543.81;5002740;28;6780;-74
2022/05/09 01:11:26;;;;;;;;;;;;;;;13.37;47.57;101540.25;4997722;28;6862;-74
2022/05/09 01:14:03;;;;;;;;;;;;;;;13.33;48.12;101543.47;4999426;28;6807;-74
2022/05/09 01:16:28;;;;;;;;;;;;;;;13.29;47.76;101545.00;4994245;28;7156;-74
2022/05/09 01:19:00;;;;;;;;;;;;;;;13.27;47.86;101545.72;4995010;28;7393;-74
2022/05/09 01:21:40;;;;;;;;;;;;;;;13.21;48.43;101538.53;4999006;28;6820;-74
2022/05/09 01:24:17;;;;;;;;;;;;;;;13.18;48.58;101538.34;4969329;28;7370;-74
2022/05/09 01:26:43;;;;;;;;;;;;;;;13.15;48.87;101536.50;4995045;28;6958;-74
2022/05/09 01:29:42;;;;;;;;;;;;;;;13.12;48.88;101536.31;4999386;28;6800;-74
2022/05/09 01:32:13;;;;;;;;;;;;;;;13.09;48.44;101533.59;4978173;28;6835;-74
2022/05/09 01:34:48;;;;;;;;;;;;;;;13.08;48.22;101536.06;4997907;28;6895;-74
2022/05/09 01:37:20;;;;;;;;;;;;;;;13.08;48.98;101538.63;4979738;28;6800;-74
2022/05/09 01:39:46;;;;;;;;;;;;;;;13.06;48.49;101525.69;4983575;28;6812;-74
2022/05/09 01:42:12;;;;;;;;;;;;;;;13.05;49.23;101532.53;4999170;28;6811;-74
2022/05/09 01:44:38;;;;;;;;;;;;;;;13.03;49.20;101528.09;5000716;28;6791;-74
2022/05/09 01:49:49;;;;;;;;;;;;;;;12.98;48.60;101521.81;4996009;28;6891;-74
2022/05/09 01:52:16;;;;;;;;;;;;;;;12.95;49.40;101526.78;4996153;28;6879;-74
2022/05/09 01:54:43;;;;;;;;;;;;;;;12.92;49.26;101525.78;4999700;28;6804;-74
2022/05/09 01:57:11;;;;;;;;;;;;;;;12.90;48.95;101529.09;5000752;28;6927;-74
2022/05/09 01:59:39;;;;;;;;;;;;;;;12.88;48.83;101533.25;5002270;28;6873;-74
2022/05/09 02:02:23;;;;;;;;;;;;;;;12.85;49.80;101536.56;4997376;28;7276;-74
2022/05/09 02:04:49;;;;;;;;;;;;;;;12.84;49.65;101532.19;4998693;28;6804;-74
2022/05/09 02:07:18;;;;;;;;;;;;;;;12.82;49.78;101538.94;5000755;28;6935;-74
2022/05/09 02:09:47;;;;;;;;;;;;;;;12.82;49.27;101532.94;4983428;28;7324;-74
2022/05/09 02:12:15;;;;;;;;;;;;;;;12.80;49.93;101537.97;4992752;28;6792;-74
2022/05/09 02:14:43;;;;;;;;;;;;;;;12.80;49.45;101543.13;4997459;28;6836;-74
2022/05/09 02:17:11;;;;;;;;;;;;;;;12.78;49.19;101532.72;4994406;28;6819;-74
2022/05/09 02:19:37;;;;;;;;;;;;;;;12.76;49.32;101530.91;4991801;28;6971;-74
2022/05/09 02:22:03;;;;;;;;;;;;;;;12.75;49.70;101527.41;4973693;28;6824;-74
2022/05/09 02:24:30;;;;;;;;;;;;;;;12.74;49.73;101527.31;4965546;28;7066;-74
2022/05/09 02:26:57;;;;;;;;;;;;;;;12.72;49.89;101534.06;5000066;28;6784;-74
2022/05/09 02:29:23;;;;;;;;;;;;;;;12.69;49.82;101534.78;5001941;28;6804;-74
2022/05/09 02:31:49;;;;;;;;;;;;;;;12.67;50.32;101528.66;4999644;28;7124;-74
2022/05/09 02:34:15;;;;;;;;;;;;;;;12.64;50.35;101537.09;4986999;28;7064;-74
2022/05/09 02:36:41;;;;;;;;;;;;;;;12.62;50.60;101540.38;4972765;28;7067;-74
2022/05/09 02:39:07;;;;;;;;;;;;;;;12.59;50.44;101530.81;5001969;28;6953;-74
2022/05/09 02:41:33;;;;;;;;;;;;;;;12.57;50.54;101532.41;5001623;28;6962;-74
2022/05/09 02:43:59;;;;;;;;;;;;;;;12.55;50.39;101536.53;5003995;28;6804;-74
2022/05/09 02:46:26;;;;;;;;;;;;;;;12.53;50.22;101530.44;5001658;28;7363;-74
2022/05/09 02:48:52;;;;;;;;;;;;;;;12.52;51.08;101532.94;5002309;28;6887;-74
2022/05/09 02:51:18;;;;;;;;;;;;;;;12.51;51.00;101534.59;5003887;28;6880;-74
2022/05/09 02:53:44;;;;;;;;;;;;;;;12.48;50.90;101531.88;4999587;28;7304;-74
2022/05/09 02:56:10;;;;;;;;;;;;;;;12.47;51.02;101524.97;5002034;28;6875;-74
2022/05/09 02:58:36;;;;;;;;;;;;;;;12.45;50.97;101524.84;4999626;28;6999;-74
2022/05/09 03:01:04;;;;;;;;;;;;;;;12.45;50.92;101523.94;5003500;28;7732;-74
2022/05/09 03:06:15;;;;;;;;;;;;;;;12.41;50.72;101516.88;5006301;28;6836;-74
2022/05/09 03:08:41;;;;;;;;;;;;;;;12.40;50.71;101513.41;5004418;28;6808;-74
2022/05/09 03:11:07;;;;;;;;;;;;;;;12.40;50.92;101517.69;5004716;28;6807;-74
2022/05/09 03:13:34;;;;;;;;;;;;;;;12.38;51.32;101512.44;4999000;28;6816;-74
2022/05/09 03:16:01;;;;;;;;;;;;;;;12.39;51.40;101510.75;5001989;28;7054;-74
2022/05/09 03:18:27;;;;;;;;;;;;;;;12.39;50.93;101515.91;4999970;28;6895;-75
2022/05/09 03:20:54;;;;;;;;;;;;;;;12.39;50.76;101515.91;5004542;28;6879;-74
2022/05/09 03:23:21;;;;;;;;;;;;;;;12.39;51.42;101515.91;4997767;28;7613;-74
2022/05/09 03:25:47;;;;;;;;;;;;;;;12.38;50.82;101515.00;5005706;28;6922;-74
2022/05/09 03:28:21;;;;;;;;;;;;;;;12.35;51.12;101513.13;5002801;28;6871;-74
2022/05/09 03:30:50;;;;;;;;;;;;;;;12.33;51.00;101521.56;4971181;28;7140;-74
2022/05/09 03:33:16;;;;;;;;;;;;;;;12.31;51.43;101521.47;5003578;28;6970;-75
2022/05/09 03:35:43;;;;;;;;;;;;;;;12.31;50.97;101512.88;5004035;28;7062;-75
2022/05/09 03:38:10;;;;;;;;;;;;;;;12.31;51.22;101518.00;5003221;28;6883;-74
2022/05/09 03:40:36;;;;;;;;;;;;;;;12.29;51.36;101520.50;5000676;28;6974;-74
2022/05/09 03:43:02;;;;;;;;;;;;;;;12.28;50.92;101513.59;4999423;28;6907;-74
2022/05/09 03:45:28;;;;;;;;;;;;;;;12.29;51.63;101514.47;4988977;28;6976;-74
2022/05/09 03:47:54;;;;;;;;;;;;;;;12.29;51.64;101510.22;5004088;28;6871;-74
2022/05/09 03:50:20;;;;;;;;;;;;;;;12.28;51.57;101508.44;4993505;28;6967;-74
2022/05/09 03:52:47;;;;;;;;;;;;;;;12.26;51.61;101504.00;5016258;28;6831;-74
2022/05/09 03:55:13;;;;;;;;;;;;;;;12.25;51.65;101512.53;4970441;28;7018;-74
2022/05/09 03:57:53;;;;;;;;;;;;;;;12.22;51.16;101513.22;5004140;28;6907;-74
2022/05/09 04:00:26;;;;;;;;;;;;;;;12.19;51.57;101507.91;5000316;28;6808;-72
2022/05/09 04:02:52;;;;;;;;;;;;;;;12.16;51.63;101507.72;4979742;28;9923;-72
2022/05/09 04:05:19;;;;;;;;;;;;;;;12.17;51.25;101509.50;5000601;28;6831;-72
2022/05/09 04:07:49;;;;;;;;;;;;;;;12.15;51.73;101518.78;4990921;28;6816;-73
2022/05/09 04:10:23;;;;;;;;;;;;;;;12.15;51.81;101516.22;4993825;28;6816;-73
2022/05/09 04:12:48;;;;;;;;;;;;;;;12.16;51.61;101507.72;5002980;28;6811;-73
2022/05/09 04:18:00;;;;;;;;;;;;;;;12.17;52.27;101512.94;5003448;28;8124;-73
2022/05/09 04:20:29;;;;;;;;;;;;;;;12.22;52.15;101510.66;5002990;28;6800;-73
2022/05/09 04:22:57;;;;;;;;;;;;;;;12.27;52.24;101516.06;5002987;28;6808;-73
2022/05/09 04:25:22;;;;;;;;;;;;;;;12.37;52.27;101508.09;5004739;28;7334;-73
2022/05/09 04:27:49;;;;;;;;;;;;;;;12.48;52.57;101501.00;4994179;28;6780;-73
2022/05/09 04:30:16;;;;;;;;;;;;;;;12.63;52.97;101507.00;4986288;28;6872;-73
2022/05/09 04:32:42;;;;;;;;;;;;;;;12.77;52.53;101505.22;4993643;28;7622;-73
2022/05/09 04:35:17;;;;;;;;;;;;;;;12.93;53.12;101506.09;4986431;28;7048;-73
2022/05/09 04:37:52;;;;;;;;;;;;;;;13.10;52.54;101504.47;4985711;28;6804;-73
2022/05/09 04:40:26;;;;;;;;;;;;;;;13.28;53.29;101511.44;4999702;28;7078;-73
2022/05/09 04:42:52;;;;;;;;;;;;;;;13.47;53.21;101509.09;4979368;28;6888;-73
2022/05/09 04:45:19;;;;;;;;;;;;;;;13.69;52.78;101510.22;5005835;28;7026;-74
2022/05/09 04:47:45;;;;;;;;;;;;;;;13.95;52.82;101517.53;4985406;28;6979;-73
2022/05/09 04:50:14;;;;;;;;;;;;;;;14.19;52.55;101512.78;5015182;28;7277;-73
2022/05/09 04:52:40;;;;;;;;;;;;;;;14.44;53.16;101508.88;5002970;28;6962;-74
2022/05/09 04:55:07;;;;;;;;;;;;;;;14.70;52.73;101507.56;5003288;28;6808;-74
2022/05/09 04:57:33;;;;;;;;;;;;;;;14.99;53.22;101502.09;5002394;28;6804;-74
2022/05/09 04:59:59;;;;;;;;;;;;;;;15.27;52.16;101508.53;4987902;28;7216;-74
2022/05/09 05:02:25;;;;;;;;;;;;;;;15.55;52.17;101512.41;4982532;28;6931;-74
2022/05/09 05:04:51;;;;;;;;;;;;;;;15.84;51.51;101505.06;5003274;28;7055;-74
2022/05/09 05:07:16;;;;;;;;;;;;;;;16.11;51.87;101501.91;4997854;28;6870;-74
2022/05/09 05:09:42;;;;;;;;;;;;;;;16.38;50.71;101496.16;5003775;28;7113;-74
2022/05/09 05:12:08;;;;;;;;;;;;;;;16.64;50.39;101499.78;5000919;28;6803;-74
2022/05/09 05:14:34;;;;;;;;;;;;;;;16.88;49.73;101505.91;4987731;28;7126;-74
2022/05/09 05:17:00;;;;;;;;;;;;;;;17.12;49.47;101512.91;5002100;28;6784;-74
2022/05/09 05:19:35;;;;;;;;;;;;;;;17.33;48.69;101508.53;5005763;28;7129;-74
2022/05/09 05:22:03;;;;;;;;;;;;;;;17.55;47.52;101511.94;5003825;28;6800;-74
2022/05/09 05:24:34;;;;;;;;;;;;;;;17.71;46.85;101513.38;5004678;28;7048;-74
2022/05/09 05:27:00;;;;;;;;;;;;;;;17.81;46.07;101511.13;5002074;28;6824;-74
2022/05/09 05:29:26;;;;;;;;;;;;;;;17.88;46.24;101511.41;5001544;28;6820;-74
2022/05/09 05:31:52;;;;;;;;;;;;;;;17.94;45.62;101512.44;5002080;28;6808;-73
2022/05/09 05:34:18;;;;;;;;;;;;;;;17.97;45.58;101515.16;5005163;28;6787;-73
2022/05/09 05:36:44;;;;;;;;;;;;;;;18.00;45.79;101515.25;5001309;28;6887;-73
2022/05/09 05:39:13;;;;;;;;;;;;;;;18.03;45.34;101512.75;5012250;28;6784;-73
2022/05/09 05:41:39;;;;;;;;;;;;;;;18.04;45.31;101514.56;5002206;28;6820;-74
2022/05/09 05:44:08;;;;;;;;;;;;;;;18.07;45.28;101508.59;5002428;28;6796;-74
2022/05/09 05:46:34;;;;;;;;;;;;;;;18.05;44.90;101500.75;4985723;28;6907;-74
2022/05/09 05:49:00;;;;;;;;;;;;;;;18.04;44.85;101504.19;5005244;28;6808;-74
2022/05/09 05:51:26;;;;;;;;;;;;;;;17.98;44.17;101498.78;5000768;28;6827;-74
2022/05/09 05:53:54;;;;;;;;;;;;;;;17.88;44.27;101503.63;4980020;28;6815;-74
2022/05/09 05:56:20;;;;;;;;;;;;;;;17.80;44.09;101506.75;4988783;28;6895;-74
2022/05/09 05:58:45;;;;;;;;;;;;;;;17.71;43.68;101505.59;5003950;28;6816;-74
2022/05/09 06:01:11;;;;;;;;;;;;;;;17.61;43.69;101514.75;4999928;28;7824;-74
2022/05/09 06:03:37;;;;;;;;;;;;;;;17.53;43.47;101516.19;4985957;28;6872;-74
2022/05/09 06:06:03;;;;;;;;;;;;;;;17.45;43.62;101512.41;5004647;28;6808;-74
2022/05/09 06:08:29;;;;;;;;;;;;;;;17.40;43.77;101513.97;5004927;28;6871;-73
2022/05/09 06:10:55;;;;;;;;;;;;;;;17.37;43.57;101514.72;5000818;28;7057;-73
2022/05/09 06:13:21;;;;;;;;;;;;;;;17.35;44.02;101521.56;5000398;28;6804;-73
2022/05/09 06:15:47;;;;;;;;;;;;;;;17.32;43.73;101524.91;4996179;28;6800;-73
2022/05/09 06:18:12;;;;;;;;;;;;;;;17.30;44.09;101510.13;4993086;28;6787;-73
2022/05/09 06:20:43;;;;;;;;;;;;;;;17.32;44.42;101517.16;5000544;28;8506;-73
2022/05/09 06:23:13;;;;;;;;;;;;;;;17.37;44.31;101506.97;4998780;28;6815;-73
2022/05/09 06:25:40;;;;;;;;;;;;;;;17.43;44.46;101516.66;4985882;28;6819;-73
2022/05/09 06:28:07;;;;;;;;;;;;;;;17.48;43.84;101503.06;5001982;28;7079;-73
2022/05/09 06:30:34;;;;;;;;;;;;;;;17.55;44.01;101505.88;4986033;28;6800;-73
2022/05/09 06:33:00;;;;;;;;;;;;;;;17.63;44.04;101507.06;5001800;28;6808;-73
2022/05/09 06:35:28;;;;;;;;;;;;;;;17.70;43.74;101509.00;5002558;28;6866;-73
2022/05/09 06:38:05;;;;;;;;;;;;;;;17.78;44.02;101517.09;4998558;28;6791;-73
2022/05/09 06:40:35;;;;;;;;;;;;;;;17.87;44.06;101516.53;5013400;28;6811;-73
2022/05/09 06:43:03;;;;;;;;;;;;;;;17.97;43.74;101517.75;5001577;28;6803;-73
2022/05/09 06:45:30;;;;;;;;;;;;;;;18.07;43.89;101508.59;5003767;28;6799;-73
2022/05/09 06:47:57;;;;;;;;;;;;;;;18.16;43.79;101509.81;5003131;28;6796;-73
2022/05/09 06:50:29;;;;;;;;;;;;;;;18.24;44.15;101507.47;5002811;28;7242;-73
2022/05/09 06:52:55;;;;;;;;;;;;;;;18.30;43.40;101505.09;4995338;28;6800;-73
2022/05/09 06:55:21;;;;;;;;;;;;;;;18.38;43.86;101505.34;5000178;28;7142;-73
2022/05/09 06:57:49;;;;;;;;;;;;;;;18.46;43.37;101503.91;5002732;28;6812;-73
2022/05/09 07:00:21;;;;;;;;;;;;;;;18.55;43.19;101498.09;4997859;28;7896;-73
2022/05/09 07:02:47;;;;;;;;;;;;;;;18.64;43.78;101494.94;4999455;28;6820;-73
2022/05/09 07:05:18;;;;;;;;;;;;;;;18.76;43.31;101490.97;4985392;28;6803;-73
2022/05/09 07:07:44;;;;;;;;;;;;;;;18.91;43.54;101490.56;4998153;28;8057;-73
2022/05/09 07:10:12;;;;;;;;;;;;;;;19.03;42.86;101490.97;5002101;28;6796;-73
2022/05/09 07:12:52;;;;;;;;;;;;;;;19.18;43.38;101485.34;4999344;28;6800;-73
2022/05/09 07:15:25;;;;;;;;;;;;;;;19.32;43.04;101485.75;5000958;28;6811;-73
2022/05/09 07:17:52;;;;;;;;;;;;;;;19.49;42.72;101486.25;4982228;28;6820;-73
2022/05/09 07:20:21;;;;;;;;;;;;;;;19.64;43.25;101485.78;4982081;28;6811;-73
2022/05/09 07:22:51;;;;;;;;;;;;;;;19.82;42.67;101495.84;4989578;28;6796;-73
2022/05/09 07:25:17;;;;;;;;;;;;;;;20.00;42.69;101492.00;5005533;28;6808;-72
2022/05/09 07:27:43;;;;;;;;;;;;;;;20.18;43.08;101483.78;5004693;28;6796;-72
2022/05/09 07:30:12;;;;;;;;;;;;;;;20.34;42.48;101485.03;5001530;28;6845;-72
2022/05/09 07:32:38;;;;;;;;;;;;;;;20.46;42.23;101488.78;4983042;28;6804;-72
2022/05/09 07:35:07;;;;;;;;;;;;;;;20.55;41.89;101486.41;4980879;28;7119;-72
2022/05/09 07:37:33;;;;;;;;;;;;;;;20.62;41.86;101496.13;5018863;28;6831;-72
2022/05/09 07:39:59;;;;;;;;;;;;;;;20.74;41.57;101487.75;5000101;28;6803;-72
2022/05/09 07:42:25;;;;;;;;;;;;;;;20.90;41.70;101483.78;5006207;28;6803;-72
2022/05/09 07:44:52;;;;;;;;;;;;;;;21.06;41.51;101491.97;5003469;28;6772;-72
2022/05/09 07:47:18;;;;;;;;;;;;;;;21.20;41.12;101481.84;4976746;28;8900;-72
2022/05/09 07:49:45;;;;;;;;;;;;;;;21.31;41.09;101482.03;5020543;28;7332;-72
2022/05/09 07:52:11;;;;;;;;;;;;;;;21.40;40.62;101468.31;5005463;28;6816;-72
2022/05/09 07:54:37;;;;;;;;;;;;;;;21.48;40.61;101483.25;4992141;28;7845;-72
2022/05/09 07:57:04;;;;;;;;;;;;;;;21.55;40.43;101486.00;4977299;28;8064;-72
2022/05/09 07:59:29;;;;;;;;;;;;;;;21.64;40.63;101483.59;5005200;28;6796;-72
2022/05/09 08:01:55;;;;;;;;;;;;;;;21.74;40.43;101490.75;4999695;28;6787;-72
2022/05/09 08:04:22;;;;;;;;;;;;;;;21.88;40.69;101480.59;5020026;28;6811;-72
2022/05/09 08:06:48;;;;;;;;;;;;;;;22.05;40.32;101485.22;4976783;28;7260;-72
2022/05/09 08:09:14;;;;;;;;;;;;;;;22.20;40.16;101484.59;5004251;28;8044;-72
2022/05/09 08:11:41;;;;;;;;;;;;;;;22.34;40.24;101479.59;5005457;28;7043;-72
2022/05/09 08:14:08;;;;;;;;;;;;;;;22.46;39.91;101471.09;4991812;28;6804;-72
2022/05/09 08:16:34;;;;;;;;;;;;;;;22.60;39.52;101472.22;5003232;28;6879;-72
2022/05/09 08:19:02;;;;;;;;;;;;;;;22.72;39.35;101474.13;5004366;28;6796;-72
2022/05/09 08:21:28;;;;;;;;;;;;;;;22.85;39.46;101471.72;5006018;28;7666;-72
2022/05/09 08:23:54;;;;;;;;;;;;;;;22.99;39.47;101464.94;5006098;28;6800;-73
2022/05/09 08:26:21;;;;;;;;;;;;;;;23.20;39.11;101467.81;5005375;28;6856;-73
2022/05/09 08:28:49;;;;;;;;;;;;;;;23.37;38.55;101460.19;5005470;28;6796;-73
2022/05/09 08:31:18;;;;;;;;;;;;;;;23.57;38.62;101452.56;5003124;28;6962;-73
2022/05/09 08:33:52;;;;;;;;;;;;;;;23.83;38.41;101452.84;4987981;28;6873;-73
2022/05/09 08:39:08;;;;;;;;;;;;;;;24.54;37.38;101462.16;4990027;28;7518;-73
2022/05/09 08:41:59;;;;;;;;;;;;;;;25.05;37.42;101462.47;4996115;28;7642;-73
2022/05/09 08:44:59;;;;;;;;;;;;;;;25.62;36.32;101453.97;5017942;28;6803;-73
2022/05/09 08:47:40;;;;;;;;;;;;;;;26.30;35.81;101458.38;5006629;28;7172;-73
2022/05/09 08:51:04;;;;;;;;;;;;;;;27.04;34.98;101451.25;5017354;28;6832;-73
2022/05/09 08:53:39;;;;;;;;;;;;;;;27.79;34.16;101451.72;5000501;28;6828;-73
2022/05/09 08:56:11;;;;;;;;;;;;;;;28.39;33.32;101449.50;5003622;28;6884;-74
2022/05/09 08:58:56;;;;;;;;;;;;;;;29.07;33.07;101445.22;5003472;28;7035;-73
2022/05/09 09:01:30;;;;;;;;;;;;;;;29.66;32.41;101447.09;5002588;28;6808;-73
2022/05/09 09:04:03;;;;;;;;;;;;;;;30.23;31.73;101432.09;5006038;28;6799;-73
2022/05/09 09:07:00;;;;;;;;;;;;;;;30.63;30.47;101439.25;4986696;28;6800;-73
2022/05/09 09:09:47;;;;;;;;;;;;;;;31.10;30.76;101435.69;5001752;28;7106;-73
2022/05/09 09:13:00;;;;;;;;;;;;;;;31.61;29.41;101438.97;5004216;28;6796;-73
2022/05/09 09:16:18;;;;;;;;;;;;;;;31.98;29.28;101439.84;5003547;28;6973;-73
2022/05/09 09:19:08;;;;;;;;;;;;;;;32.27;28.80;101435.56;5000232;28;6819;-73
2022/05/09 09:22:05;;;;;;;;;;;;;;;32.51;28.27;101436.72;5004803;28;7063;-73
2022/05/09 09:24:48;;;;;;;;;;;;;;;32.74;27.98;101436.97;5003190;28;6907;-73
2022/05/09 09:27:35;;;;;;;;;;;;;;;33.01;27.59;101443.25;5000861;28;6796;-73
2022/05/09 09:30:10;;;;;;;;;;;;;;;33.24;27.42;101434.59;4982781;28;6987;-73
2022/05/09 09:32:45;;;;;;;;;;;;;;;33.48;26.83;101429.47;5002782;28;6815;-73
2022/05/09 09:35:47;;;;;;;;;;;;;;;33.79;26.88;101422.25;5005200;28;7217;-73
2022/05/09 09:38:41;;;;;;;;;;;;;;;34.31;26.66;101421.41;4995917;28;7001;-73
2022/05/09 09:41:29;;;;;;;;;;;;;;;34.87;25.59;101422.88;5001673;28;6816;-73
2022/05/09 09:44:13;;;;;;;;;;;;;;;35.22;24.20;101422.44;4991264;28;6890;-73
2022/05/09 09:47:09;;;;;;;;;;;;;;;35.63;23.91;101415.50;5001116;28;6824;-73
2022/05/09 09:49:45;;;;;;;;;;;;;;;35.92;23.45;101416.06;5001123;28;7209;-74
2022/05/09 09:52:31;;;;;;;;;;;;;;;36.05;22.61;101411.06;5001823;28;6808;-74
2022/05/09 09:55:06;;;;;;;;;;;;;;;36.12;23.06;101417.91;5000424;28;6895;-74
2022/05/09 09:57:36;;;;;;;;;;;;;;;36.33;23.07;101416.09;5000678;28;6820;-74
2022/05/09 10:00:26;;;;;;;;;;;;;;;36.46;22.63;101415.53;4996696;28;7430;-74
2022/05/09 10:02:54;;;;;;;;;;;;;;;36.61;22.07;101417.53;5001259;28;6835;-74
2022/05/09 10:05:34;;;;;;;;;;;;;;;36.78;22.13;101410.50;4968243;28;7272;-74
2022/05/09 10:08:35;;;;;;;;;;;;;;;36.53;21.87;101404.47;4993866;28;6887;-74
2022/05/09 10:11:23;;;;;;;;;;;;;;;36.36;22.01;101393.72;4979227;28;6978;-74
2022/05/09 10:13:57;;;;;;;;;;;;;;;36.54;22.20;101400.03;4999986;28;7318;-74
2022/05/09 10:16:30;;;;;;;;;;;;;;;36.55;21.95;101391.97;5003697;28;6800;-73
2022/05/09 10:19:00;;;;;;;;;;;;;;;36.44;22.35;101393.38;4998778;28;6811;-73
2022/05/09 10:24:49;;;;;;;;;;;;;;;36.36;22.65;101391.03;4978789;28;6966;-73
2022/05/09 10:27:22;;;;;;;;;;;;;;;36.55;22.77;101386.63;5002647;28;7879;-73
2022/05/09 10:29:51;;;;;;;;;;;;;;;36.86;22.89;101381.66;5006106;28;6875;-73
2022/05/09 10:32:27;;;;;;;;;;;;;;;37.10;22.04;101376.09;4988173;28;7255;-73
2022/05/09 10:35:06;;;;;;;;;;;;;;;37.29;22.40;101364.50;5002421;28;6800;-73
2022/05/09 10:38:02;;;;;;;;;;;;;;;37.21;22.40;101363.06;4994342;28;7145;-73
2022/05/09 10:40:48;;;;;;;;;;;;;;;37.05;22.16;101370.09;4992592;28;6804;-73
2022/05/09 10:43:26;;;;;;;;;;;;;;;37.18;22.28;101373.91;5001365;28;6812;-73
2022/05/09 10:45:53;;;;;;;;;;;;;;;37.58;21.95;101367.53;5003451;28;7228;-73
2022/05/09 10:48:34;;;;;;;;;;;;;;;37.90;22.01;101359.63;5008480;28;6792;-73
2022/05/09 10:51:18;;;;;;;;;;;;;;;38.02;21.51;101350.97;5006552;28;6808;-73
2022/05/09 10:54:29;;;;;;;;;;;;;;;37.75;21.59;101354.13;5004278;28;6819;-73
2022/05/09 10:57:05;;;;;;;;;;;;;;;37.26;21.75;101353.94;4997839;28;6812;-73
2022/05/09 10:59:41;;;;;;;;;;;;;;;36.99;21.50;101352.53;5005884;28;6784;-73
2022/05/09 11:02:29;;;;;;;;;;;;;;;36.93;22.02;101350.16;5004832;28;6812;-73
2022/05/09 11:04:55;;;;;;;;;;;;;;;36.82;21.49;101353.38;5003224;28;6804;-73
2022/05/09 11:07:52;;;;;;;;;;;;;;;36.61;22.00;101350.78;5019668;28;6791;-73
2022/05/09 11:10:40;;;;;;;;;;;;;;;36.64;21.95;101350.63;5003514;28;6804;-73
2022/05/09 11:13:44;;;;;;;;;;;;;;;36.77;21.94;101350.03;5003339;28;7221;-73
2022/05/09 11:16:33;;;;;;;;;;;;;;;36.59;21.43;101336.63;5002632;28;7020;-73
2022/05/09 11:19:29;;;;;;;;;;;;;;;36.45;22.10;101331.91;5003446;28;6903;-74
2022/05/09 11:22:37;;;;;;;;;;;;;;;36.64;21.83;101339.09;4993134;28;6962;-74
2022/05/09 11:25:32;;;;;;;;;;;;;;;36.91;22.12;101336.03;5004279;28;6828;-74
2022/05/09 11:28:28;;;;;;;;;;;;;;;37.26;21.54;101327.22;4996722;28;6796;-74
2022/05/09 11:31:18;;;;;;;;;;;;;;;37.88;21.33;101324.94;5006442;28;8570;-74
2022/05/09 11:34:28;;;;;;;;;;;;;;;38.38;20.53;101321.44;5004752;28;7892;-74
2022/05/09 11:37:02;;;;;;;;;;;;;;;38.59;20.89;101316.72;5010788;28;6842;-74
2022/05/09 11:39:49;;;;;;;;;;;;;;;38.71;20.61;101307.97;5001420;28;6815;-74
2022/05/09 11:46:41;;;;;;;;;;;;;;;39.58;20.21;101311.00;5000151;28;6916;-74
2022/05/09 11:50:04;;;;;;;;;;;;;;;39.78;19.44;101299.97;5006374;28;7003;-74
2022/05/09 11:52:43;;;;;;;;;;;;;;;39.69;19.51;101298.75;4995559;28;6816;-74
2022/05/09 11:55:25;;;;;;;;;;;;;;;39.71;19.31;101294.13;5000521;28;7287;-74
2022/05/09 11:58:02;;;;;;;;;;;;;;;39.84;19.50;101294.25;4971095;28;8574;-74
2022/05/09 12:00:28;;;;;;;;;;;;;;;39.92;19.32;101291.97;5004900;28;6812;-74
2022/05/09 12:02:59;;;;;;;;;;;;;;;39.67;19.25;101292.63;5002882;28;6788;-74
2022/05/09 12:05:25;;;;;;;;;;;;;;;39.26;19.36;101295.03;4986121;28;6803;-74
2022/05/09 12:08:21;;;;;;;;;;;;;;;38.68;19.24;101289.44;4998934;28;7218;-74
2022/05/09 12:11:27;;;;;;;;;;;;;;;38.15;19.63;101284.28;5005568;28;6811;-74
2022/05/09 12:13:57;;;;;;;;;;;;;;;37.85;19.81;101286.78;4998998;28;6807;-74
2022/05/09 12:16:39;;;;;;;;;;;;;;;37.64;20.22;101281.63;5004817;28;6969;-74
2022/05/09 12:19:34;;;;;;;;;;;;;;;37.45;20.20;101284.41;5001340;28;6815;-73
2022/05/09 12:22:18;;;;;;;;;;;;;;;37.26;20.87;101289.81;5002654;28;6974;-73
2022/05/09 12:24:44;;;;;;;;;;;;;;;37.12;20.42;101285.16;5005276;28;7842;-73
2022/05/09 12:27:45;;;;;;;;;;;;;;;37.02;20.41;101276.75;4993221;28;6867;-74
2022/05/09 12:30:43;;;;;;;;;;;;;;;37.12;21.32;101275.38;5005848;28;6812;-74
2022/05/09 12:33:17;;;;;;;;;;;;;;;37.41;20.83;101270.31;4984854;28;8096;-74
2022/05/09 12:35:45;;;;;;;;;;;;;;;37.57;20.52;101264.19;5000213;28;7068;-74
2022/05/09 12:38:13;;;;;;;;;;;;;;;37.57;20.30;101259.72;5000619;28;6895;-74
2022/05/09 12:40:39;;;;;;;;;;;;;;;37.64;20.37;101257.56;5017262;28;7100;-74
2022/05/09 12:43:09;;;;;;;;;;;;;;;37.57;20.23;101258.84;5002862;28;6812;-74
2022/05/09 12:45:40;;;;;;;;;;;;;;;37.59;20.15;101259.66;4997595;28;6888;-74
2022/05/09 12:48:11;;;;;;;;;;;;;;;37.47;20.01;101248.63;5002971;28;7860;-74
2022/05/09 12:50:43;;;;;;;;;;;;;;;37.14;19.94;101257.44;5001514;28;7236;-73
2022/05/09 12:53:14;;;;;;;;;;;;;;;36.88;20.89;101256.91;5002126;28;6811;-74
2022/05/09 12:55:57;;;;;;;;;;;;;;;36.88;20.60;101256.91;5001982;28;6820;-74
2022/05/09 12:58:32;;;;;;;;;;;;;;;36.86;20.07;101248.13;4997277;28;6895;-73
2022/05/09 13:01:04;;;;;;;;;;;;;;;36.65;20.90;101240.25;5001237;28;7022;-74
2022/05/09 13:03:31;;;;;;;;;;;;;;;36.73;20.59;101239.00;4986732;28;6792;-74
2022/05/09 13:06:16;;;;;;;;;;;;;;;36.76;20.33;101236.19;4977386;28;6808;-74
2022/05/09 13:08:42;;;;;;;;;;;;;;;36.79;20.45;101239.56;4992412;28;6990;-74
2022/05/09 13:11:15;;;;;;;;;;;;;;;37.07;20.92;101240.00;5000054;28;6804;-74
2022/05/09 13:14:07;;;;;;;;;;;;;;;37.27;20.89;101230.97;4998392;28;6804;-74
2022/05/09 13:16:54;;;;;;;;;;;;;;;37.33;20.45;101235.13;4996431;28;6827;-73
2022/05/09 13:19:21;;;;;;;;;;;;;;;36.83;20.46;101229.59;5002029;28;7673;-73
2022/05/09 13:21:49;;;;;;;;;;;;;;;36.61;21.14;101232.47;4984393;28;6792;-74
2022/05/09 13:24:26;;;;;;;;;;;;;;;36.68;21.51;101224.06;4989546;28;8100;-74
2022/05/09 13:27:04;;;;;;;;;;;;;;;36.79;20.96;101230.66;4987304;28;7940;-74
2022/05/09 13:29:39;;;;;;;;;;;;;;;36.58;21.12;101224.63;5004900;28;6812;-74
2022/05/09 13:32:07;;;;;;;;;;;;;;;36.24;21.20;101227.09;5015463;28;6887;-73
2022/05/09 13:34:40;;;;;;;;;;;;;;;36.10;21.27;101223.25;4974500;28;6883;-73
2022/05/09 13:37:11;;;;;;;;;;;;;;;36.19;21.11;101215.75;4998083;28;6892;-73